createdAt,value
2022-09-28T00:07:42.212Z,94757.66
2022-09-28T00:16:12.128Z,94750.90
2022-09-28T00:24:35.224Z,94745.47
2022-09-28T00:32:58.441Z,94746.16
2022-09-28T00:41:21.474Z,94746.36
2022-09-28T00:49:51.165Z,94740.64
2022-09-28T00:58:27.614Z,94712.55
2022-09-28T01:06:51.528Z,94657.27
2022-09-28T01:15:15.756Z,94616.87
2022-09-28T01:24:30.221Z,94606.19
2022-09-28T01:33:07.381Z,94588.24
2022-09-28T01:41:32.083Z,94581.67
2022-09-28T01:50:08.552Z,94575.35
2022-09-28T01:58:43.789Z,94534.16
2022-09-28T02:07:08.994Z,94531.70
2022-09-28T02:15:43.211Z,94538.14
2022-09-28T02:24:22.657Z,94546.60
2022-09-28T02:32:50.716Z,94540.13
2022-09-28T02:41:32.487Z,94527.39
2022-09-28T02:50:10.795Z,94502.67
2022-09-28T02:58:42.931Z,94458.34
2022-09-28T03:07:18.597Z,94435.52
2022-09-28T03:15:46.437Z,94423.69
2022-09-28T03:24:11.608Z,94425.09
2022-09-28T03:32:34.609Z,94425.45
2022-09-28T03:41:00.006Z,94409.90
2022-09-28T03:49:26.542Z,94417.04
2022-09-28T03:57:58.465Z,94447.45
2022-09-28T04:06:22.471Z,94467.81
2022-09-28T04:14:45.865Z,94477.05
2022-09-28T04:23:08.939Z,94472.17
2022-09-28T04:31:39.203Z,94468.63
2022-09-28T04:40:02.223Z,94459.98
2022-09-28T04:48:28.049Z,94462.95
2022-09-28T04:57:21.127Z,94465.09
2022-09-28T05:05:45.317Z,94462.91
2022-09-28T05:14:32.825Z,94451.09
2022-09-28T05:22:56.022Z,94455.71
2022-09-28T05:31:19.389Z,94449.21
2022-09-28T05:40:09.166Z,94428.98
2022-09-28T05:48:32.142Z,94401.48
2022-09-28T05:56:55.275Z,94412.82
2022-09-28T06:05:18.645Z,94409.98
2022-09-28T06:13:42.244Z,94389.19
2022-09-28T06:22:05.393Z,94351.11
2022-09-28T06:30:39.225Z,94318.13
2022-09-28T06:39:06.482Z,94313.85
2022-09-28T06:47:33.390Z,94297.80
2022-09-28T06:56:21.339Z,94297.23
2022-09-28T07:04:44.822Z,94302.66
2022-09-28T07:13:49.810Z,94299.05
2022-09-28T07:22:19.894Z,94421.54
2022-09-28T07:30:46.855Z,94769.05
2022-09-28T07:39:15.059Z,94909.06
2022-09-28T07:47:39.059Z,94836.98
2022-09-28T07:56:21.087Z,94821.16
2022-09-28T08:04:50.908Z,94908.88
2022-09-28T08:13:15.506Z,95211.56
2022-09-28T08:21:50.872Z,95373.98
2022-09-28T08:30:15.055Z,95418.35
2022-09-28T08:38:58.191Z,95534.40
2022-09-28T08:48:24.061Z,95696.51
2022-09-28T08:57:23.014Z,95866.33
2022-09-28T09:06:08.951Z,95967.85
2022-09-28T09:15:27.020Z,96002.69
2022-09-28T09:24:03.852Z,96109.90
2022-09-28T09:32:47.629Z,96223.89
2022-09-28T09:41:26.387Z,96218.25
2022-09-28T09:50:30.113Z,96247.38
2022-09-28T09:59:01.667Z,96115.45
2022-09-28T10:07:54.103Z,95960.92
2022-09-28T10:16:19.953Z,95778.23
2022-09-28T10:24:56.899Z,95701.93
2022-09-28T10:33:34.870Z,95684.61
2022-09-28T10:42:05.132Z,95717.90
2022-09-28T10:50:28.574Z,95693.58
2022-09-28T10:59:00.602Z,95729.93
2022-09-28T11:07:46.739Z,95801.09
2022-09-28T11:16:23.119Z,95793.27
2022-09-28T11:24:46.552Z,95858.45
2022-09-28T11:33:20.683Z,95962.41
2022-09-28T11:42:24.426Z,96188.15
2022-09-28T11:50:57.787Z,96230.84
2022-09-28T11:59:42.764Z,96143.23
2022-09-28T12:08:33.276Z,96074.80
2022-09-28T12:17:08.194Z,95968.34
2022-09-28T12:25:41.303Z,95855.33
2022-09-28T12:34:05.690Z,95736.30
2022-09-28T12:42:31.865Z,95719.70
2022-09-28T12:51:13.652Z,95724.69
2022-09-28T13:00:02.340Z,95590.43
2022-09-28T13:08:37.406Z,95503.13
2022-09-28T13:17:18.848Z,95429.73
2022-09-28T13:25:49.694Z,95441.14
2022-09-28T13:34:22.644Z,95492.90
2022-09-28T13:42:51.078Z,95541.68
2022-09-28T13:51:42.307Z,95571.52
2022-09-28T14:00:11.124Z,95643.59
2022-09-28T14:09:05.243Z,95668.30
2022-09-28T14:17:30.581Z,95653.88
2022-09-28T14:26:11.426Z,95651.48
2022-09-28T14:34:38.480Z,95646.45
2022-09-28T14:43:39.227Z,95712.93
2022-09-28T14:52:04.158Z,95715.77
2022-09-28T15:00:31.941Z,95675.02
2022-09-28T15:08:55.246Z,95667.16
2022-09-28T15:17:26.532Z,95647.15
2022-09-28T15:25:52.569Z,95594.74
2022-09-28T15:34:49.691Z,95586.28
2022-09-28T15:43:33.006Z,95539.46
2022-09-28T15:52:05.568Z,95464.88
2022-09-28T16:00:31.946Z,95377.39
2022-09-28T16:08:54.869Z,95293.37
2022-09-28T16:17:33.679Z,95234.80
2022-09-28T16:26:03.169Z,95198.45
2022-09-28T16:34:27.344Z,95125.14
2022-09-28T16:42:51.341Z,94989.05
2022-09-28T16:51:22.597Z,94919.32
2022-09-28T16:59:45.467Z,94873.66
2022-09-28T17:08:13.515Z,94825.13
2022-09-28T17:17:06.218Z,94770.36
2022-09-28T17:25:22.860Z,94704.06
2022-09-28T17:33:47.443Z,94693.55
2022-09-28T17:42:10.845Z,94705.18
2022-09-28T17:50:36.339Z,94678.27
2022-09-28T17:59:03.434Z,94639.58
2022-09-28T18:07:28.927Z,94616.22
2022-09-28T18:15:53.365Z,94621.14
2022-09-28T18:24:16.759Z,94593.65
2022-09-28T18:32:40.609Z,94532.72
2022-09-28T18:41:08.607Z,94510.07
2022-09-28T18:49:33.741Z,94514.98
2022-09-28T18:57:56.875Z,94506.36
2022-09-28T19:06:20.248Z,94522.34
2022-09-28T19:14:43.724Z,94558.95
2022-09-28T19:23:06.735Z,94563.42
2022-09-28T19:31:31.379Z,94503.39
2022-09-28T19:39:54.322Z,94451.17
2022-09-28T19:48:17.278Z,94413.26
2022-09-28T19:56:41.581Z,94392.40
2022-09-28T20:05:05.407Z,94331.86
2022-09-28T20:13:36.735Z,94281.04
2022-09-28T20:22:03.272Z,94285.77
2022-09-28T20:30:26.891Z,94355.40
2022-09-28T20:38:51.948Z,94381.67
2022-09-28T20:47:15.518Z,94344.13
2022-09-28T20:55:38.921Z,94360.89
2022-09-28T21:04:03.805Z,94374.51
2022-09-28T21:12:28.985Z,94340.86
2022-09-28T21:20:51.908Z,94307.19
2022-09-28T21:29:15.766Z,94260.23
2022-09-28T21:37:38.818Z,94189.46
2022-09-28T21:46:03.134Z,94101.91
2022-09-28T21:54:26.239Z,93972.17
2022-09-28T22:02:51.160Z,93846.71
2022-09-28T22:11:20.356Z,93782.61
2022-09-28T22:19:45.458Z,93740.70
2022-09-28T22:28:08.694Z,93720.55
2022-09-28T22:36:32.571Z,93717.40
2022-09-28T22:44:55.477Z,93735.98
2022-09-28T22:53:19.420Z,93781.92
2022-09-28T23:01:42.412Z,93841.30
2022-09-28T23:10:06.825Z,93841.52
2022-09-28T23:18:32.934Z,93856.17
2022-09-28T23:26:56.175Z,93874.52
2022-09-28T23:35:19.594Z,93903.39
2022-09-28T23:43:42.508Z,93903.99
2022-09-28T23:52:05.425Z,93906.77
